Time;durP1;ratioP1;P1;durP2;ratioP2;P2;SDS_P1;SDS_P2;PMS_P1;PMS_P2;Temp;Humidity;BMP_temperature;BMP_pressure;BME280_temperature;BME280_humidity;BME280_pressure;Samples;Min_cycle;Max_cycle;Signal;HPM_P1;HPM_P2
2023/04/21 00:01:12;;;;;;;31.02;14.95;;;8.70;99.90;;;;;;4991951;28;20497;-67
2023/04/21 00:03:38;;;;;;;28.65;15.13;;;8.70;99.90;;;;;;4993643;28;20055;-66
2023/04/21 00:06:08;;;;;;;26.27;14.75;;;8.70;99.90;;;;;;4994612;28;20480;-65
2023/04/21 00:08:39;;;;;;;25.52;13.30;;;8.70;99.90;;;;;;4996125;28;20053;-65
2023/04/21 00:11:05;;;;;;;26.52;14.43;;;8.70;99.90;;;;;;5014780;28;20060;-64
2023/04/21 00:13:32;;;;;;;25.58;13.95;;;8.80;99.90;;;;;;5015166;28;20400;-65
2023/04/21 00:15:57;;;;;;;30.00;14.65;;;8.80;99.90;;;;;;5015492;28;20473;-64
2023/04/21 00:18:24;;;;;;;26.45;13.90;;;8.70;99.90;;;;;;5010242;28;20118;-65
2023/04/21 00:20:49;;;;;;;23.42;13.02;;;8.70;99.90;;;;;;4996045;28;20046;-65
2023/04/21 00:23:15;;;;;;;23.23;13.50;;;8.60;99.90;;;;;;5014372;28;20046;-68
2023/04/21 00:25:40;;;;;;;28.27;14.18;;;8.60;99.90;;;;;;4995086;28;20624;-68
2023/04/21 00:28:06;;;;;;;22.75;13.43;;;8.50;99.90;;;;;;4983280;28;20037;-67
2023/04/21 00:30:32;;;;;;;23.70;14.30;;;8.40;99.90;;;;;;5012365;28;20124;-64
2023/04/21 00:32:57;;;;;;;24.83;13.10;;;8.40;99.90;;;;;;5010590;28;20034;-65
2023/04/21 00:35:23;;;;;;;22.90;13.25;;;8.40;99.90;;;;;;4991733;28;20041;-67
2023/04/21 00:37:49;;;;;;;29.10;14.60;;;8.30;99.90;;;;;;4991667;28;20033;-66
2023/04/21 00:40:14;;;;;;;24.58;12.43;;;8.30;99.90;;;;;;5016428;28;20083;-66
2023/04/21 00:42:40;;;;;;;21.85;13.25;;;8.30;99.90;;;;;;5021690;28;20481;-64
2023/04/21 00:45:06;;;;;;;22.27;13.45;;;8.20;99.90;;;;;;5021988;28;20053;-65
2023/04/21 00:47:32;;;;;;;23.65;12.80;;;8.30;99.90;;;;;;5021229;28;20121;-65
2023/04/21 00:49:58;;;;;;;26.98;13.90;;;8.20;99.90;;;;;;5004613;28;20140;-66
2023/04/21 00:52:25;;;;;;;25.80;13.13;;;8.20;99.90;;;;;;4989170;28;20037;-65
2023/04/21 00:54:51;;;;;;;24.60;13.52;;;8.20;99.90;;;;;;5014714;28;20041;-68
2023/04/21 00:57:18;;;;;;;21.65;11.55;;;8.20;99.90;;;;;;4993451;28;20041;-66
2023/04/21 00:59:43;;;;;;;26.85;13.73;;;8.10;99.90;;;;;;4980772;28;20057;-66
2023/04/21 01:02:09;;;;;;;23.58;12.73;;;8.10;99.90;;;;;;4982617;28;20049;-67
2023/04/21 01:04:38;;;;;;;24.42;12.38;;;8.10;99.90;;;;;;4992592;28;20069;-65
2023/04/21 01:07:05;;;;;;;25.83;13.13;;;8.10;99.90;;;;;;5012206;28;20053;-65
2023/04/21 01:09:31;;;;;;;29.17;11.75;;;8.10;99.90;;;;;;5014986;28;20501;-64
2023/04/21 01:12:03;;;;;;;24.30;13.35;;;8.10;99.90;;;;;;4982660;28;20049;-67
2023/04/21 01:14:29;;;;;;;21.55;12.02;;;8.10;99.90;;;;;;4992819;28;20041;-65
2023/04/21 01:16:55;;;;;;;23.45;12.45;;;8.00;99.90;;;;;;4995740;28;20041;-63
2023/04/21 01:19:21;;;;;;;23.13;12.90;;;8.00;99.90;;;;;;4995834;28;20533;-65
2023/04/21 01:21:48;;;;;;;20.13;12.48;;;8.00;99.90;;;;;;4998764;28;20209;-66
2023/04/21 01:24:13;;;;;;;25.20;12.98;;;8.00;99.90;;;;;;5010152;28;20065;-65
2023/04/21 01:26:39;;;;;;;23.17;12.95;;;8.00;99.90;;;;;;4998332;28;20128;-65
2023/04/21 01:29:04;;;;;;;21.33;13.05;;;8.00;99.90;;;;;;4990530;28;20099;-65
2023/04/21 01:31:30;;;;;;;22.15;12.90;;;8.00;99.90;;;;;;4998372;28;20037;-65
2023/04/21 01:33:55;;;;;;;24.73;12.90;;;8.10;99.90;;;;;;4994476;28;20030;-67
2023/04/21 01:36:21;;;;;;;22.77;12.18;;;8.10;99.90;;;;;;4993174;28;20041;-68
2023/04/21 01:38:47;;;;;;;25.77;12.88;;;8.00;99.90;;;;;;4996676;28;20600;-65
2023/04/21 01:41:12;;;;;;;21.52;12.15;;;8.00;99.90;;;;;;4997877;28;20051;-63
2023/04/21 01:43:38;;;;;;;19.85;11.60;;;8.10;99.90;;;;;;5016691;28;20670;-66
2023/04/21 01:46:04;;;;;;;17.83;11.73;;;8.20;99.90;;;;;;4993272;28;20056;-67
2023/04/21 01:48:30;;;;;;;19.85;12.00;;;8.20;99.90;;;;;;4996989;28;20053;-65
2023/04/21 01:50:56;;;;;;;22.23;12.73;;;8.10;99.90;;;;;;5012520;28;20639;-66
2023/04/21 01:53:21;;;;;;;24.90;12.75;;;8.00;99.90;;;;;;5004721;28;20046;-65
2023/04/21 01:55:47;;;;;;;23.00;11.48;;;8.00;99.90;;;;;;5023827;28;20034;-67
2023/04/21 01:58:13;;;;;;;20.98;12.25;;;8.00;99.90;;;;;;5011877;28;20519;-65
2023/04/21 02:00:38;;;;;;;21.98;12.38;;;8.00;99.90;;;;;;5019798;28;20116;-67
2023/04/21 02:03:04;;;;;;;22.63;11.93;;;8.00;99.90;;;;;;4993398;28;20466;-66
2023/04/21 02:05:29;;;;;;;22.48;13.48;;;7.90;99.90;;;;;;4996693;28;20058;-66
2023/04/21 02:07:55;;;;;;;21.67;12.23;;;8.00;99.90;;;;;;5002315;28;20056;-67
2023/04/21 02:10:21;;;;;;;21.23;12.40;;;8.00;99.90;;;;;;5019588;28;20855;-64
2023/04/21 02:12:46;;;;;;;25.60;12.18;;;8.00;99.90;;;;;;4999386;28;20051;-68
2023/04/21 02:15:12;;;;;;;20.52;12.07;;;8.00;99.90;;;;;;5002762;28;20428;-67
2023/04/21 02:17:37;;;;;;;24.38;12.93;;;8.00;99.90;;;;;;4997278;28;20390;-66
2023/04/21 02:20:04;;;;;;;20.30;12.63;;;7.90;99.90;;;;;;5016448;28;20600;-68
2023/04/21 02:22:31;;;;;;;20.23;11.90;;;7.90;99.90;;;;;;5003720;28;20043;-65
2023/04/21 02:24:56;;;;;;;18.70;11.95;;;7.90;99.90;;;;;;5014682;28;20041;-65
2023/04/21 02:27:22;;;;;;;24.88;12.85;;;7.80;99.90;;;;;;5016583;28;20092;-65
2023/04/21 02:29:47;;;;;;;19.98;11.30;;;7.90;99.90;;;;;;4983106;28;20128;-66
2023/04/21 02:32:13;;;;;;;19.83;10.95;;;8.00;99.90;;;;;;5015398;28;20136;-64
2023/04/21 02:34:40;;;;;;;25.92;11.93;;;8.00;99.90;;;;;;5001399;28;20678;-64
2023/04/21 02:37:06;;;;;;;24.67;12.48;;;8.00;99.90;;;;;;5014018;28;20612;-68
2023/04/21 02:39:31;;;;;;;25.52;12.30;;;7.90;99.90;;;;;;5020313;28;20048;-65
2023/04/21 02:41:57;;;;;;;17.60;11.05;;;7.90;99.90;;;;;;4996147;28;21854;-65
2023/04/21 02:44:23;;;;;;;21.30;11.57;;;7.90;99.90;;;;;;5020044;28;20087;-66
2023/04/21 02:46:48;;;;;;;17.08;10.98;;;8.00;99.90;;;;;;5010767;28;20117;-65
2023/04/21 02:49:14;;;;;;;19.63;11.98;;;7.90;99.90;;;;;;5014928;28;20033;-66
2023/04/21 02:51:40;;;;;;;23.25;11.50;;;7.90;99.90;;;;;;5015567;28;20045;-64
2023/04/21 02:54:05;;;;;;;21.70;10.90;;;8.00;99.90;;;;;;5014392;28;20041;-68
2023/04/21 02:56:33;;;;;;;19.85;11.55;;;8.00;99.90;;;;;;4997377;28;20489;-65
2023/04/21 02:58:59;;;;;;;21.77;11.40;;;8.00;99.90;;;;;;5019350;28;20061;-67
2023/04/21 03:01:24;;;;;;;18.92;10.80;;;8.00;99.90;;;;;;5005041;28;20042;-64
2023/04/21 03:03:50;;;;;;;20.33;12.20;;;7.90;99.90;;;;;;5024727;28;20125;-66
2023/04/21 03:06:16;;;;;;;24.52;11.50;;;8.00;99.90;;;;;;4987889;28;20050;-64
2023/04/21 03:08:42;;;;;;;22.55;11.43;;;7.90;99.90;;;;;;5020080;28;20116;-64
2023/04/21 03:11:07;;;;;;;19.52;12.23;;;8.00;99.90;;;;;;5026478;28;20048;-66
2023/04/21 03:13:33;;;;;;;22.33;13.60;;;8.00;99.90;;;;;;5020122;28;20465;-68
2023/04/21 03:15:58;;;;;;;21.77;11.48;;;7.90;99.90;;;;;;4999289;28;20440;-66
2023/04/21 03:18:24;;;;;;;22.73;12.40;;;7.90;99.90;;;;;;4996999;28;20064;-65
2023/04/21 03:20:50;;;;;;;20.15;10.90;;;7.90;99.90;;;;;;5014514;28;20072;-64
2023/04/21 03:23:16;;;;;;;20.60;11.70;;;8.00;99.90;;;;;;4994451;28;20037;-68
2023/04/21 03:25:42;;;;;;;22.40;12.95;;;8.00;99.90;;;;;;4995064;28;20046;-68
2023/04/21 03:28:07;;;;;;;23.92;13.05;;;8.00;99.90;;;;;;4998509;28;20041;-68
2023/04/21 03:30:33;;;;;;;19.70;11.43;;;7.90;99.90;;;;;;4999220;28;20072;-65
2023/04/21 03:32:58;;;;;;;23.30;12.45;;;8.00;99.90;;;;;;4994963;28;20057;-65
2023/04/21 03:35:24;;;;;;;22.83;11.40;;;8.00;99.90;;;;;;4993628;28;20045;-67
2023/04/21 03:37:50;;;;;;;21.30;12.63;;;8.00;99.90;;;;;;5010766;28;20840;-67
2023/04/21 03:40:15;;;;;;;23.30;13.23;;;8.00;99.90;;;;;;4994273;28;20037;-65
2023/04/21 03:42:41;;;;;;;19.52;12.13;;;7.90;99.90;;;;;;4993912;28;20136;-66
2023/04/21 03:45:08;;;;;;;26.10;13.23;;;7.90;99.90;;;;;;5001739;28;20529;-65
2023/04/21 03:47:34;;;;;;;23.60;12.70;;;7.80;99.90;;;;;;5015483;28;20528;-64
2023/04/21 03:50:02;;;;;;;28.33;13.10;;;7.80;99.90;;;;;;5002064;28;20049;-66
2023/04/21 03:52:27;;;;;;;25.48;11.70;;;7.80;99.90;;;;;;5000463;28;20041;-64
2023/04/21 03:54:53;;;;;;;20.75;13.32;;;7.70;99.90;;;;;;5015110;28;20048;-64
2023/04/21 03:57:18;;;;;;;23.42;13.32;;;7.80;99.90;;;;;;5011764;28;20037;-64
2023/04/21 03:59:44;;;;;;;26.40;12.57;;;7.80;99.90;;;;;;5014536;28;20111;-65
2023/04/21 04:02:09;;;;;;;22.08;13.05;;;7.80;99.90;;;;;;5010729;28;20059;-68
2023/04/21 04:04:35;;;;;;;22.67;12.75;;;7.80;99.90;;;;;;4992538;28;20087;-68
2023/04/21 04:07:01;;;;;;;21.13;12.10;;;7.80;99.90;;;;;;5011094;28;20088;-66
2023/04/21 04:09:27;;;;;;;24.90;14.15;;;7.80;99.90;;;;;;5006600;28;20046;-66
2023/04/21 04:11:52;;;;;;;22.08;13.48;;;7.80;99.90;;;;;;5004458;28;20072;-63
2023/04/21 04:14:18;;;;;;;21.15;12.60;;;7.70;99.90;;;;;;5009170;28;20037;-67
2023/04/21 04:16:44;;;;;;;24.52;12.75;;;7.80;99.90;;;;;;5001260;28;20386;-65
2023/04/21 04:19:10;;;;;;;23.10;11.95;;;7.70;99.90;;;;;;5008944;28;20120;-67
2023/04/21 04:21:36;;;;;;;23.92;12.65;;;7.70;99.90;;;;;;5005884;28;20045;-65
2023/04/21 04:24:02;;;;;;;19.95;11.70;;;7.70;99.90;;;;;;5024968;28;20543;-67
2023/04/21 04:26:28;;;;;;;19.35;12.05;;;7.70;99.90;;;;;;5015498;28;20040;-63
2023/04/21 04:28:56;;;;;;;20.52;12.52;;;7.70;99.90;;;;;;5002955;28;20030;-65
2023/04/21 04:31:24;;;;;;;22.40;11.50;;;7.70;99.90;;;;;;5004415;28;20148;-67
2023/04/21 04:33:52;;;;;;;24.13;12.80;;;7.70;99.90;;;;;;5009618;28;20120;-66
2023/04/21 04:36:18;;;;;;;20.52;12.48;;;7.70;99.90;;;;;;5003607;28;22115;-66
2023/04/21 04:38:44;;;;;;;20.02;11.77;;;7.70;99.90;;;;;;5001841;28;20076;-65
2023/04/21 04:41:11;;;;;;;22.23;11.73;;;7.70;99.90;;;;;;5019653;28;20119;-66
2023/04/21 04:43:38;;;;;;;22.02;10.80;;;7.70;99.90;;;;;;5003790;28;20053;-63
2023/04/21 04:46:04;;;;;;;24.13;13.18;;;7.70;99.90;;;;;;5019814;28;20053;-67
2023/04/21 04:48:30;;;;;;;23.23;12.23;;;7.80;99.90;;;;;;5003759;28;20049;-65
2023/04/21 04:50:55;;;;;;;19.10;11.70;;;7.70;99.90;;;;;;5020685;28;20037;-67
2023/04/21 04:53:21;;;;;;;21.88;12.52;;;7.70;99.90;;;;;;5013563;28;20037;-65
2023/04/21 04:55:47;;;;;;;22.15;11.70;;;7.80;99.90;;;;;;5003222;28;20045;-63
2023/04/21 04:58:12;;;;;;;18.58;11.70;;;7.70;99.90;;;;;;5021695;28;20475;-67
2023/04/21 05:00:39;;;;;;;20.38;11.90;;;7.80;99.90;;;;;;5002082;28;20043;-66
2023/04/21 05:03:05;;;;;;;19.10;12.32;;;7.70;99.90;;;;;;4996253;28;20046;-67
2023/04/21 05:05:31;;;;;;;18.67;11.82;;;7.80;99.90;;;;;;5002016;28;20037;-65
2023/04/21 05:07:56;;;;;;;21.50;11.40;;;7.80;99.90;;;;;;5019963;28;20139;-65
2023/04/21 05:10:22;;;;;;;23.40;11.35;;;7.80;99.90;;;;;;5003102;28;20098;-66
2023/04/21 05:12:48;;;;;;;23.77;12.05;;;7.80;99.90;;;;;;5006262;28;20046;-66
2023/04/21 05:15:14;;;;;;;18.85;11.30;;;7.80;99.90;;;;;;5006392;28;20052;-66
2023/04/21 05:17:39;;;;;;;22.30;12.13;;;7.80;99.90;;;;;;4989927;28;20049;-64
2023/04/21 05:20:07;;;;;;;19.90;11.73;;;7.90;99.90;;;;;;5009809;28;20416;-63
2023/04/21 05:22:39;;;;;;;21.85;12.32;;;7.90;99.90;;;;;;5028352;28;20052;-65
2023/04/21 05:25:06;;;;;;;19.08;11.25;;;7.90;99.90;;;;;;5002139;28;20057;-66
2023/04/21 05:27:32;;;;;;;23.10;11.35;;;8.00;99.90;;;;;;5005856;28;20049;-66
2023/04/21 05:29:58;;;;;;;22.45;12.32;;;8.00;99.90;;;;;;5008355;28;20393;-65
2023/04/21 05:32:24;;;;;;;17.90;11.48;;;8.10;99.90;;;;;;5019374;28;20037;-67
2023/04/21 05:34:50;;;;;;;20.40;11.25;;;8.10;99.90;;;;;;5014568;28;20042;-64
2023/04/21 05:37:15;;;;;;;18.90;11.20;;;8.20;99.90;;;;;;5012872;28;20064;-67
2023/04/21 05:39:41;;;;;;;20.45;11.10;;;8.30;99.90;;;;;;5009834;28;20029;-64
2023/04/21 05:42:09;;;;;;;19.95;11.10;;;8.30;99.90;;;;;;4996299;28;20123;-66
2023/04/21 05:44:34;;;;;;;19.83;11.40;;;8.40;99.90;;;;;;5000872;28;20186;-67
2023/04/21 05:47:00;;;;;;;25.90;10.90;;;8.50;99.90;;;;;;5014508;28;20124;-64
2023/04/21 05:49:25;;;;;;;20.13;11.43;;;8.60;99.90;;;;;;4998036;28;20409;-65
2023/04/21 05:51:51;;;;;;;20.23;10.98;;;8.70;99.90;;;;;;5019079;28;20081;-64
2023/04/21 05:54:17;;;;;;;16.58;10.80;;;8.70;99.90;;;;;;4990770;28;20041;-66
2023/04/21 05:56:42;;;;;;;21.10;11.20;;;8.80;99.90;;;;;;4976991;28;20068;-66
2023/04/21 05:59:08;;;;;;;20.08;11.60;;;8.90;99.90;;;;;;5008280;28;20454;-65
2023/04/21 06:01:33;;;;;;;21.33;11.13;;;9.00;99.90;;;;;;4988778;28;20041;-65
2023/04/21 06:03:59;;;;;;;23.20;11.15;;;9.00;99.90;;;;;;5010439;28;20530;-66
2023/04/21 06:06:26;;;;;;;21.65;11.00;;;9.10;99.90;;;;;;4992452;28;20394;-68
2023/04/21 06:08:52;;;;;;;20.48;10.43;;;9.30;99.90;;;;;;4992377;28;20068;-68
2023/04/21 06:11:17;;;;;;;21.35;11.07;;;9.40;99.90;;;;;;4994127;28;20050;-66
2023/04/21 06:13:43;;;;;;;17.02;10.77;;;9.50;99.90;;;;;;5013446;28;20045;-66
2023/04/21 06:16:09;;;;;;;15.40;10.02;;;9.70;99.90;;;;;;5011184;28;20038;-63
2023/04/21 06:18:34;;;;;;;16.38;10.45;;;9.90;99.90;;;;;;5019225;28;20369;-64
2023/04/21 06:21:00;;;;;;;20.45;9.98;;;10.00;99.90;;;;;;5007709;28;20032;-64
2023/04/21 06:23:25;;;;;;;16.23;10.23;;;10.10;99.90;;;;;;4983497;28;20049;-65
2023/04/21 06:26:03;;;;;;;16.95;10.10;;;10.30;99.90;;;;;;4997913;28;20053;-67
2023/04/21 06:28:30;;;;;;;16.90;9.93;;;10.40;99.90;;;;;;5018811;28;20056;-65
2023/04/21 06:30:56;;;;;;;15.05;8.98;;;10.60;99.90;;;;;;4998769;28;20077;-67
2023/04/21 06:33:22;;;;;;;18.63;9.98;;;10.70;99.90;;;;;;5006591;28;20052;-64
2023/04/21 06:35:47;;;;;;;16.83;10.15;;;10.90;99.90;;;;;;5021101;28;20913;-65
2023/04/21 06:38:13;;;;;;;18.45;9.13;;;11.00;99.90;;;;;;5019696;28;20037;-66
2023/04/21 06:40:39;;;;;;;13.90;9.38;;;11.10;99.90;;;;;;5026398;28;20025;-65
2023/04/21 06:43:04;;;;;;;18.27;9.68;;;11.30;99.90;;;;;;5017108;28;20132;-66
2023/04/21 06:45:30;;;;;;;18.55;9.13;;;11.40;99.90;;;;;;5011751;28;20480;-66
2023/04/21 06:47:55;;;;;;;16.90;9.27;;;11.50;99.90;;;;;;4987453;28;20052;-67
2023/04/21 06:50:21;;;;;;;13.20;9.27;;;11.70;99.90;;;;;;4998292;28;20144;-66
2023/04/21 06:52:46;;;;;;;19.80;9.75;;;11.80;99.90;;;;;;4998983;28;20232;-66
2023/04/21 06:55:12;;;;;;;14.50;8.55;;;11.90;99.90;;;;;;5017897;28;20037;-67
2023/04/21 06:57:38;;;;;;;14.80;9.05;;;12.00;99.90;;;;;;5007159;28;20049;-68
2023/04/21 07:00:04;;;;;;;18.38;8.77;;;12.20;99.90;;;;;;4987142;28;20157;-64
2023/04/21 07:02:30;;;;;;;17.83;9.18;;;12.40;99.90;;;;;;5010011;28;20163;-68
2023/04/21 07:04:56;;;;;;;11.82;8.02;;;12.60;99.90;;;;;;5014700;28;20477;-66
2023/04/21 07:07:21;;;;;;;12.63;8.52;;;12.70;99.90;;;;;;5015143;28;20053;-66
2023/04/21 07:09:47;;;;;;;13.25;8.75;;;12.90;99.90;;;;;;5005994;28;20496;-67
2023/04/21 07:12:13;;;;;;;18.42;9.80;;;12.90;99.90;;;;;;5019820;28;20464;-65
2023/04/21 07:14:39;;;;;;;13.27;8.52;;;12.90;99.90;;;;;;5021865;28;20073;-67
2023/04/21 07:17:05;;;;;;;10.48;8.02;;;12.80;99.90;;;;;;5012142;28;20089;-64
2023/04/21 07:19:30;;;;;;;18.45;10.00;;;12.70;99.90;;;;;;4999125;28;20537;-66
2023/04/21 07:21:57;;;;;;;14.32;8.35;;;12.70;99.90;;;;;;5004674;28;20044;-66
2023/04/21 07:24:22;;;;;;;15.20;9.43;;;12.70;99.90;;;;;;5007690;28;20041;-66
2023/04/21 07:26:48;;;;;;;15.30;8.10;;;12.70;99.60;;;;;;5004427;28;20048;-64
2023/04/21 07:29:13;;;;;;;13.65;8.40;;;12.90;99.60;;;;;;5012128;28;20039;-64
2023/04/21 07:31:39;;;;;;;14.93;8.90;;;13.20;99.90;;;;;;5020317;28;20060;-67
2023/04/21 07:34:04;;;;;;;17.92;9.02;;;13.50;99.90;;;;;;5033347;28;20047;-66
2023/04/21 07:36:30;;;;;;;15.25;9.02;;;13.70;99.40;;;;;;5001066;28;20040;-63
2023/04/21 07:38:56;;;;;;;16.23;8.30;;;13.80;99.30;;;;;;5011839;28;20088;-67
2023/04/21 07:41:21;;;;;;;15.18;8.60;;;14.10;98.90;;;;;;5013961;28;20125;-67
2023/04/21 07:43:47;;;;;;;12.85;8.40;;;14.20;97.60;;;;;;5011303;28;20029;-68
2023/04/21 07:46:13;;;;;;;15.65;8.63;;;14.40;97.90;;;;;;5007831;28;20096;-68
2023/04/21 07:48:39;;;;;;;15.63;9.30;;;14.80;96.90;;;;;;5020676;28;20100;-66
2023/04/21 07:51:05;;;;;;;14.80;8.55;;;15.10;94.60;;;;;;5012097;28;20049;-65
2023/04/21 07:53:31;;;;;;;12.90;7.80;;;15.40;93.00;;;;;;5027690;28;20033;-66
2023/04/21 07:55:56;;;;;;;15.75;8.73;;;15.30;93.50;;;;;;5014067;28;20034;-68
2023/04/21 07:58:22;;;;;;;12.88;8.27;;;15.40;93.20;;;;;;5029066;28;20087;-63
2023/04/21 08:00:48;;;;;;;13.93;8.07;;;15.40;91.00;;;;;;5029468;28;20115;-67
2023/04/21 08:03:14;;;;;;;16.73;8.45;;;15.60;92.00;;;;;;5010200;28;20071;-66
2023/04/21 08:05:39;;;;;;;13.68;8.20;;;15.60;90.80;;;;;;5025957;28;20486;-66
2023/04/21 08:08:06;;;;;;;15.48;8.18;;;15.40;90.00;;;;;;5026974;28;20132;-65
2023/04/21 08:10:32;;;;;;;15.63;8.60;;;15.20;89.50;;;;;;5031964;28;20421;-64
2023/04/21 08:12:57;;;;;;;13.77;8.00;;;14.90;87.60;;;;;;5028001;28;20033;-66
2023/04/21 08:15:23;;;;;;;16.83;8.23;;;14.90;87.40;;;;;;5032544;28;20099;-65
2023/04/21 08:17:49;;;;;;;17.88;8.45;;;14.90;86.40;;;;;;4989809;28;20593;-66
2023/04/21 08:20:14;;;;;;;16.10;8.75;;;15.00;86.90;;;;;;5014480;28;20068;-65
2023/04/21 08:22:40;;;;;;;11.50;8.20;;;15.30;84.00;;;;;;5030559;28;20529;-67
2023/04/21 08:25:06;;;;;;;15.25;7.97;;;15.20;84.50;;;;;;5010051;28;20041;-65
2023/04/21 08:27:31;;;;;;;12.93;8.32;;;15.30;84.60;;;;;;5021083;28;20072;-67
2023/04/21 08:29:58;;;;;;;20.55;9.35;;;15.30;85.10;;;;;;5011813;28;20109;-66
2023/04/21 08:32:25;;;;;;;14.02;7.78;;;15.50;85.10;;;;;;5008137;28;20041;-65
2023/04/21 08:34:52;;;;;;;15.95;8.60;;;15.70;84.60;;;;;;5030271;28;20041;-67
2023/04/21 08:37:18;;;;;;;15.88;8.48;;;16.20;81.70;;;;;;5013199;28;20056;-66
2023/04/21 08:39:44;;;;;;;13.45;7.63;;;16.50;80.80;;;;;;5008262;28;20038;-67
2023/04/21 08:42:14;;;;;;;14.45;8.15;;;17.10;79.10;;;;;;5012667;28;20045;-64
2023/04/21 08:44:40;;;;;;;;;;;17.50;76.10;;;;;;5029435;28;20057;-66
2023/04/21 08:47:10;;;;;;;12.90;8.02;;;17.90;71.60;;;;;;5027013;28;19917;-66
2023/04/21 08:49:37;;;;;;;15.38;7.78;;;17.80;73.20;;;;;;5028268;28;20044;-67
2023/04/21 08:52:03;;;;;;;15.43;8.15;;;17.90;71.80;;;;;;5012089;28;20045;-66
2023/04/21 08:54:29;;;;;;;12.50;7.90;;;17.70;71.80;;;;;;4992393;28;20041;-67
2023/04/21 08:56:56;;;;;;;13.50;8.60;;;17.60;71.30;;;;;;5029873;28;20041;-68
2023/04/21 08:59:21;;;;;;;14.63;8.48;;;17.20;71.40;;;;;;5009261;28;20061;-67
2023/04/21 09:02:10;;;;;;;14.73;8.25;;;16.90;71.20;;;;;;5006773;28;20033;-67
2023/04/21 09:04:41;;;;;;;12.88;7.88;;;17.00;71.10;;;;;;5012906;28;20041;-68
2023/04/21 09:07:07;;;;;;;;;;;17.00;71.90;;;;;;5013458;28;20477;-67
2023/04/21 09:09:50;;;;;;;16.55;7.97;;;16.80;67.80;;;;;;5011689;28;19917;-69
2023/04/21 09:12:15;;;;;;;12.63;7.63;;;16.70;71.70;;;;;;4992442;28;20057;-65
2023/04/21 09:14:42;;;;;;;14.50;7.85;;;16.70;70.70;;;;;;5023897;28;20080;-65
2023/04/21 09:17:07;;;;;;;13.13;7.45;;;16.70;71.10;;;;;;5009880;28;20469;-68
2023/04/21 09:19:33;;;;;;;13.27;8.00;;;16.30;70.00;;;;;;5011192;28;20091;-67
2023/04/21 09:21:59;;;;;;;13.27;7.03;;;16.50;70.50;;;;;;5030095;28;20116;-67
2023/04/21 09:24:25;;;;;;;13.40;8.40;;;16.70;70.70;;;;;;5031243;28;20038;-66
2023/04/21 09:26:52;;;;;;;11.55;7.40;;;16.80;70.00;;;;;;5022574;28;20044;-64
2023/04/21 09:29:24;;;;;;;14.30;7.68;;;16.90;68.90;;;;;;5031805;28;20041;-67
2023/04/21 09:31:51;;;;;;;14.38;8.57;;;17.00;69.70;;;;;;5025264;28;20044;-66
2023/04/21 09:34:24;;;;;;;14.15;7.60;;;17.20;69.70;;;;;;5012327;28;20029;-65
2023/04/21 09:37:04;;;;;;;13.38;7.72;;;17.20;68.10;;;;;;5030179;28;20037;-64
2023/04/21 09:39:30;;;;;;;13.07;7.97;;;17.10;66.50;;;;;;4996350;28;20038;-63
2023/04/21 09:41:57;;;;;;;14.25;7.75;;;16.90;67.10;;;;;;5025945;28;20037;-63
2023/04/21 09:44:26;;;;;;;13.35;7.90;;;16.70;66.70;;;;;;5030411;28;20053;-66
2023/04/21 09:46:58;;;;;;;14.38;8.48;;;16.70;66.60;;;;;;5005934;28;20042;-67
2023/04/21 09:49:28;;;;;;;12.88;7.35;;;16.70;66.80;;;;;;5023231;28;20116;-65
2023/04/21 09:51:54;;;;;;;13.13;7.97;;;16.80;66.20;;;;;;5027571;28;20080;-64
2023/04/21 09:54:23;;;;;;;16.45;7.75;;;17.00;66.30;;;;;;5029911;28;20065;-66
2023/04/21 09:56:52;;;;;;;13.10;8.23;;;17.00;65.50;;;;;;5011341;28;20038;-64
2023/04/21 09:59:26;;;;;;;11.73;7.97;;;17.10;65.50;;;;;;5012543;28;20050;-66
2023/04/21 10:01:54;;;;;;;13.32;8.63;;;17.20;64.30;;;;;;5030267;28;20048;-64
2023/04/21 10:04:22;;;;;;;12.43;7.88;;;17.30;64.70;;;;;;5032826;28;20397;-66
2023/04/21 10:06:48;;;;;;;14.52;7.93;;;17.60;65.00;;;;;;5031694;28;20037;-67
2023/04/21 10:09:17;;;;;;;12.55;8.32;;;17.80;65.40;;;;;;5014473;28;20069;-67
2023/04/21 10:11:42;;;;;;;12.25;8.25;;;17.80;64.10;;;;;;5011369;28;21212;-65
2023/04/21 10:14:08;;;;;;;12.88;8.43;;;18.00;63.30;;;;;;5034011;28;20045;-65
2023/04/21 10:16:37;;;;;;;12.65;8.15;;;18.00;64.10;;;;;;4991679;28;20033;-65
2023/04/21 10:19:26;;;;;;;17.05;8.60;;;18.00;61.20;;;;;;5031195;28;20135;-67
2023/04/21 10:21:56;;;;;;;12.32;7.85;;;18.10;62.90;;;;;;5004036;28;20042;-66
2023/04/21 10:24:22;;;;;;;13.20;8.30;;;18.30;63.20;;;;;;5031944;28;20490;-69
2023/04/21 10:26:49;;;;;;;16.13;8.60;;;18.50;62.50;;;;;;5005415;28;20048;-67
2023/04/21 10:29:26;;;;;;;13.70;8.65;;;18.50;62.00;;;;;;5009232;28;20057;-68
2023/04/21 10:31:53;;;;;;;13.35;8.60;;;18.70;62.20;;;;;;4989405;28;20033;-67
2023/04/21 10:34:25;;;;;;;14.38;8.05;;;18.70;60.80;;;;;;5030278;28;20037;-64
2023/04/21 10:36:54;;;;;;;13.13;8.38;;;18.70;60.40;;;;;;5022540;28;20069;-65
2023/04/21 10:39:35;;;;;;;15.48;7.70;;;18.60;58.90;;;;;;5032382;28;20083;-65
2023/04/21 10:42:15;;;;;;;15.55;8.07;;;18.50;57.40;;;;;;5027080;28;20040;-65
2023/04/21 10:44:50;;;;;;;;;;;18.50;57.40;;;;;;5006730;28;20096;-65
2023/04/21 10:47:47;;;;;;;13.02;7.05;;;18.50;55.60;;;;;;5025740;28;19963;-66
2023/04/21 10:50:20;;;;;;;12.05;6.63;;;18.60;58.40;;;;;;5031506;28;20446;-67
2023/04/21 10:52:58;;;;;;;13.20;7.10;;;18.60;57.60;;;;;;5004480;28;20057;-68
2023/04/21 10:55:28;;;;;;;14.73;7.90;;;18.50;56.90;;;;;;5022953;28;20045;-68
2023/04/21 10:57:54;;;;;;;12.05;6.55;;;18.50;56.60;;;;;;5026327;28;20088;-65
2023/04/21 11:00:22;;;;;;;15.30;7.53;;;18.50;58.00;;;;;;5026048;28;20413;-65
2023/04/21 11:03:02;;;;;;;17.27;6.88;;;18.70;56.70;;;;;;5026532;28;20045;-65
2023/04/21 11:05:29;;;;;;;13.10;7.57;;;18.70;55.70;;;;;;5012264;28;20428;-66
2023/04/21 11:08:03;;;;;;;12.15;7.35;;;18.70;56.10;;;;;;5027997;28;20095;-65
2023/04/21 11:10:28;;;;;;;12.45;6.70;;;18.80;55.00;;;;;;5013356;28;20060;-66
2023/04/21 11:12:56;;;;;;;13.05;6.25;;;18.70;55.60;;;;;;5011355;28;20034;-66
2023/04/21 11:15:22;;;;;;;10.82;6.28;;;19.10;56.00;;;;;;5012791;28;20088;-66
2023/04/21 11:17:48;;;;;;;9.38;5.60;;;19.10;55.60;;;;;;5005426;28;20466;-67
2023/04/21 11:20:14;;;;;;;12.10;6.20;;;19.00;53.80;;;;;;4993335;28;20092;-63
2023/04/21 11:22:40;;;;;;;14.45;6.35;;;19.20;54.90;;;;;;5030592;28;20045;-66
2023/04/21 11:25:16;;;;;;;11.75;6.30;;;19.40;54.50;;;;;;5031485;28;20076;-67
2023/04/21 11:27:51;;;;;;;9.32;5.88;;;19.20;51.40;;;;;;5008435;28;20059;-65
2023/04/21 11:30:17;;;;;;;13.90;5.60;;;19.00;52.10;;;;;;5013309;28;20057;-67
2023/04/21 11:32:42;;;;;;;10.40;5.68;;;18.80;53.00;;;;;;5010626;28;20052;-65
2023/04/21 11:35:08;;;;;;;7.30;4.30;;;18.90;53.00;;;;;;5021706;28;20037;-66
2023/04/21 11:37:34;;;;;;;9.55;4.70;;;19.00;51.70;;;;;;4997141;28;20484;-65
2023/04/21 11:40:00;;;;;;;9.23;4.88;;;19.00;50.10;;;;;;5019803;28;20096;-65
2023/04/21 11:42:26;;;;;;;11.93;5.38;;;19.10;50.40;;;;;;5024786;28;20429;-65
2023/04/21 11:44:55;;;;;;;10.10;5.53;;;19.10;49.80;;;;;;5004484;28;20042;-63
2023/04/21 11:47:23;;;;;;;9.30;4.95;;;19.00;49.60;;;;;;5004629;28;20068;-67
2023/04/21 11:49:55;;;;;;;9.82;5.20;;;18.90;48.90;;;;;;5007018;28;20441;-65
2023/04/21 11:52:36;;;;;;;11.25;5.05;;;18.90;49.30;;;;;;5002069;28;20091;-65
2023/04/21 11:55:02;;;;;;;8.27;4.63;;;18.80;48.70;;;;;;5030121;28;20125;-68
2023/04/21 11:57:29;;;;;;;10.70;5.00;;;19.10;49.20;;;;;;4995304;28;20037;-64
2023/04/21 12:00:09;;;;;;;8.20;4.70;;;19.40;48.70;;;;;;5009370;28;20046;-67
2023/04/21 12:02:35;;;;;;;12.43;5.80;;;19.90;48.80;;;;;;5007411;28;20092;-65
2023/04/21 12:05:07;;;;;;;14.23;5.25;;;20.00;48.70;;;;;;5010835;28;20042;-67
2023/04/21 12:07:39;;;;;;;11.50;5.15;;;20.20;47.50;;;;;;4992604;28;20041;-67
2023/04/21 12:10:10;;;;;;;10.23;5.57;;;20.00;47.20;;;;;;4991508;28;20156;-65
2023/04/21 12:12:40;;;;;;;10.68;4.75;;;19.80;46.70;;;;;;4990821;28;20132;-65
2023/04/21 12:15:07;;;;;;;;;;;20.00;49.00;;;;;;4994838;28;20068;-67
2023/04/21 12:17:49;;;;;;;10.50;4.78;;;20.30;48.10;;;;;;5006257;28;19995;-67
2023/04/21 12:20:16;;;;;;;10.93;5.60;;;20.20;47.30;;;;;;4977567;28;20037;-64
2023/04/21 12:22:41;;;;;;;9.32;5.25;;;20.00;47.90;;;;;;5012437;28;20123;-66
2023/04/21 12:25:10;;;;;;;7.47;4.80;;;19.80;46.90;;;;;;5007871;28;20466;-67
2023/04/21 12:27:36;;;;;;;8.95;4.60;;;19.80;46.90;;;;;;4992740;28;20107;-66
2023/04/21 12:30:02;;;;;;;8.15;4.85;;;19.80;46.10;;;;;;5009339;28;20140;-66
2023/04/21 12:32:28;;;;;;;8.73;4.72;;;19.80;46.20;;;;;;5004719;28;20057;-64
2023/04/21 12:34:54;;;;;;;9.57;4.13;;;19.90;45.20;;;;;;5022703;28;20477;-64
2023/04/21 12:37:20;;;;;;;14.95;4.90;;;20.00;45.20;;;;;;4990211;28;20405;-66